createdAt,value
2022-07-31T00:00:15.740Z,2.03
2022-07-31T00:00:32.391Z,1.73
2022-07-31T00:00:49.048Z,1.63
2022-07-31T00:01:05.642Z,1.90
2022-07-31T00:01:22.937Z,2.10
2022-07-31T00:01:39.593Z,1.80
2022-07-31T00:01:57.239Z,1.58
2022-07-31T00:02:13.988Z,1.58
2022-07-31T00:02:30.720Z,1.83
2022-07-31T00:02:47.396Z,2.00
2022-07-31T00:03:04.153Z,1.83
2022-07-31T00:03:20.985Z,1.58
2022-07-31T00:03:38.631Z,1.55
2022-07-31T00:03:55.445Z,2.10
2022-07-31T00:04:12.164Z,1.80
2022-07-31T00:04:28.848Z,1.40
2022-07-31T00:04:46.570Z,1.70
2022-07-31T00:05:03.391Z,1.83
2022-07-31T00:05:20.059Z,1.85
2022-07-31T00:05:39.276Z,1.90
2022-07-31T00:05:58.693Z,2.08
2022-07-31T00:06:16.381Z,2.17
2022-07-31T00:06:33.151Z,1.77
2022-07-31T00:06:49.791Z,1.75
2022-07-31T00:07:06.672Z,2.13
2022-07-31T00:07:23.538Z,1.73
2022-07-31T00:07:41.202Z,1.77
2022-07-31T00:07:58.168Z,1.85
2022-07-31T00:08:15.061Z,1.95
2022-07-31T00:08:31.921Z,1.77
2022-07-31T00:08:49.444Z,1.65
2022-07-31T00:09:07.132Z,1.90
2022-07-31T00:09:49.136Z,1.90
2022-07-31T00:10:12.323Z,1.70
2022-07-31T00:10:29.132Z,2.05
2022-07-31T00:10:45.831Z,1.90
2022-07-31T00:11:02.647Z,1.83
2022-07-31T00:11:19.325Z,1.80
2022-07-31T00:11:36.111Z,1.98
2022-07-31T00:11:53.714Z,2.00
2022-07-31T00:12:10.419Z,1.67
2022-07-31T00:12:27.112Z,1.60
2022-07-31T00:12:45.296Z,1.60
2022-07-31T00:13:02.096Z,1.50
2022-07-31T00:13:19.757Z,1.83
2022-07-31T00:13:58.639Z,1.90
2022-07-31T00:14:15.476Z,2.17
2022-07-31T00:14:33.648Z,2.10
2022-07-31T00:14:50.349Z,2.10
2022-07-31T00:15:07.933Z,2.17
2022-07-31T00:15:24.672Z,2.20
2022-07-31T00:15:41.310Z,2.05
2022-07-31T00:15:59.055Z,2.00
2022-07-31T00:16:15.741Z,2.05
2022-07-31T00:16:34.151Z,1.98
2022-07-31T00:16:50.988Z,2.42
2022-07-31T00:17:07.723Z,2.30
2022-07-31T00:17:25.363Z,1.95
2022-07-31T00:17:43.078Z,2.60
2022-07-31T00:18:00.410Z,2.50
2022-07-31T00:18:17.137Z,1.85
2022-07-31T00:18:34.124Z,1.95
2022-07-31T00:18:52.217Z,2.10
2022-07-31T00:19:08.921Z,2.05
2022-07-31T00:19:25.993Z,2.28
2022-07-31T00:19:42.823Z,2.00
2022-07-31T00:20:00.683Z,1.90
2022-07-31T00:20:18.483Z,2.00
2022-07-31T00:20:35.676Z,2.22
2022-07-31T00:20:52.495Z,2.28
2022-07-31T00:21:10.778Z,2.15
2022-07-31T00:21:27.494Z,1.95
2022-07-31T00:21:44.472Z,2.10
2022-07-31T00:22:01.760Z,2.50
2022-07-31T00:22:18.527Z,2.20
2022-07-31T00:22:37.034Z,2.10
2022-07-31T00:22:55.139Z,2.20
2022-07-31T00:23:12.475Z,1.80
2022-07-31T00:23:36.016Z,2.13
2022-07-31T00:23:53.491Z,2.30
2022-07-31T00:24:11.650Z,2.28
2022-07-31T00:24:30.093Z,2.13
2022-07-31T00:24:47.467Z,2.30
2022-07-31T00:25:04.504Z,2.22
2022-07-31T00:25:21.180Z,2.17
2022-07-31T00:25:38.960Z,2.22
2022-07-31T00:25:56.160Z,2.42
2022-07-31T00:26:12.865Z,2.30
2022-07-31T00:26:29.550Z,2.10
2022-07-31T00:26:46.207Z,2.30
2022-07-31T00:27:04.863Z,2.33
2022-07-31T00:27:21.900Z,2.30
2022-07-31T00:27:38.769Z,2.20
2022-07-31T00:27:56.820Z,2.10
2022-07-31T00:28:13.543Z,2.10
2022-07-31T00:28:30.236Z,2.42
2022-07-31T00:28:48.292Z,2.65
2022-07-31T00:29:05.045Z,2.30
2022-07-31T00:29:21.682Z,2.38
2022-07-31T00:29:38.825Z,2.45
2022-07-31T00:29:56.558Z,2.35
2022-07-31T00:30:13.579Z,2.67
2022-07-31T00:30:30.489Z,2.42
2022-07-31T00:30:48.113Z,2.42
2022-07-31T00:31:04.813Z,2.40
2022-07-31T00:31:22.528Z,2.16
2022-07-31T00:31:39.551Z,2.50
2022-07-31T00:31:56.810Z,2.60
2022-07-31T00:32:13.543Z,2.20
2022-07-31T00:32:30.306Z,2.03
2022-07-31T00:32:48.907Z,2.40
2022-07-31T00:33:08.617Z,2.33
2022-07-31T00:33:25.264Z,2.47
2022-07-31T00:33:42.676Z,2.50
2022-07-31T00:33:59.424Z,2.70
2022-07-31T00:34:17.129Z,2.55
2022-07-31T00:34:34.054Z,2.53
2022-07-31T00:34:52.166Z,2.58
2022-07-31T00:35:09.376Z,2.40
2022-07-31T00:35:26.353Z,2.50
2022-07-31T00:35:44.162Z,2.90
2022-07-31T00:36:00.915Z,2.53
2022-07-31T00:36:17.555Z,2.38
2022-07-31T00:36:34.217Z,2.60
2022-07-31T00:36:52.072Z,2.67
2022-07-31T00:37:08.792Z,2.40
2022-07-31T00:37:25.474Z,2.35
2022-07-31T00:37:42.696Z,2.28
2022-07-31T00:38:25.577Z,2.47
2022-07-31T00:38:37.168Z,2.42
2022-07-31T00:38:53.878Z,2.22
2022-07-31T00:39:12.080Z,2.50
2022-07-31T00:39:28.668Z,2.38
2022-07-31T00:39:45.296Z,2.33
2022-07-31T00:40:01.986Z,2.85
2022-07-31T00:40:18.685Z,2.58
2022-07-31T00:40:36.329Z,2.42
2022-07-31T00:40:53.129Z,2.67
2022-07-31T00:41:09.956Z,2.67
2022-07-31T00:41:36.680Z,2.88
2022-07-31T00:41:54.955Z,2.30
2022-07-31T00:42:17.795Z,2.50
2022-07-31T00:42:34.776Z,2.47
2022-07-31T00:42:51.481Z,2.70
2022-07-31T00:43:09.546Z,2.97
2022-07-31T00:43:27.437Z,2.80
2022-07-31T00:43:48.501Z,2.88
2022-07-31T00:44:05.743Z,3.00
2022-07-31T00:44:28.853Z,2.63
2022-07-31T00:44:49.352Z,2.78
2022-07-31T00:45:06.805Z,2.88
2022-07-31T00:45:25.928Z,2.33
2022-07-31T00:45:46.361Z,2.20
2022-07-31T00:46:07.262Z,2.50
2022-07-31T00:46:31.066Z,2.78
2022-07-31T00:46:49.524Z,2.88
2022-07-31T00:47:07.532Z,2.40
2022-07-31T00:47:25.581Z,2.60
2022-07-31T00:47:42.961Z,2.70
2022-07-31T00:48:01.979Z,2.47
2022-07-31T00:48:19.194Z,2.65
2022-07-31T00:48:37.169Z,2.90
2022-07-31T00:48:54.659Z,2.34
2022-07-31T00:49:11.595Z,2.30
2022-07-31T00:49:37.371Z,2.38
2022-07-31T00:49:54.822Z,2.60
2022-07-31T00:50:11.999Z,2.50
2022-07-31T00:50:28.670Z,2.65
2022-07-31T00:50:45.492Z,2.88
2022-07-31T00:51:02.183Z,3.10
2022-07-31T00:51:19.826Z,3.03
2022-07-31T00:51:36.566Z,2.85
2022-07-31T00:51:53.215Z,2.80
2022-07-31T00:52:10.046Z,2.80
2022-07-31T00:52:28.664Z,2.97
2022-07-31T00:52:46.274Z,2.97
2022-07-31T00:53:03.232Z,2.90
2022-07-31T00:53:20.035Z,2.63
2022-07-31T00:53:36.727Z,2.60
2022-07-31T00:53:53.369Z,2.58
2022-07-31T00:54:17.525Z,2.55
2022-07-31T00:54:39.301Z,2.63
2022-07-31T00:54:56.173Z,2.53
2022-07-31T00:55:13.392Z,2.70
2022-07-31T00:55:30.418Z,2.70
2022-07-31T00:56:06.558Z,2.78
2022-07-31T00:56:23.245Z,2.78
2022-07-31T00:56:39.967Z,2.83
2022-07-31T00:56:56.675Z,3.03
2022-07-31T00:57:13.408Z,3.17
2022-07-31T00:57:30.223Z,2.97
2022-07-31T00:57:48.027Z,2.95
2022-07-31T00:58:04.681Z,2.85
2022-07-31T00:58:22.723Z,2.78
2022-07-31T00:58:39.800Z,2.90
2022-07-31T00:58:57.438Z,2.97
2022-07-31T00:59:14.068Z,2.78
2022-07-31T00:59:31.123Z,3.03
2022-07-31T00:59:47.745Z,3.22
2022-07-31T01:00:05.380Z,2.92
2022-07-31T01:00:23.770Z,2.40
2022-07-31T01:00:40.466Z,2.65
2022-07-31T01:00:57.311Z,3.10
2022-07-31T01:01:14.064Z,3.13
2022-07-31T01:01:31.130Z,2.60
2022-07-31T01:01:48.895Z,2.60
2022-07-31T01:02:05.782Z,2.70
2022-07-31T01:02:22.995Z,2.90
2022-07-31T01:02:46.518Z,2.67
2022-07-31T01:03:04.611Z,2.85
2022-07-31T01:03:22.290Z,2.60
2022-07-31T01:03:39.056Z,2.75
2022-07-31T01:03:55.750Z,2.70
2022-07-31T01:04:15.511Z,2.90
2022-07-31T01:04:32.546Z,2.78
2022-07-31T01:04:50.224Z,2.65
2022-07-31T01:05:07.324Z,3.22
2022-07-31T01:05:23.971Z,3.30
2022-07-31T01:05:42.077Z,3.08
2022-07-31T01:05:59.729Z,3.60
2022-07-31T01:06:16.448Z,3.20
2022-07-31T01:06:33.238Z,3.38
2022-07-31T01:06:51.913Z,3.45
2022-07-31T01:07:08.891Z,3.17
2022-07-31T01:07:25.931Z,3.17
2022-07-31T01:07:43.532Z,3.35
2022-07-31T01:08:00.221Z,3.40
2022-07-31T01:08:16.898Z,2.67
2022-07-31T01:08:33.592Z,3.00
2022-07-31T01:08:51.552Z,3.38
2022-07-31T01:09:09.726Z,3.35
2022-07-31T01:09:26.771Z,3.35
2022-07-31T01:09:44.920Z,3.35
2022-07-31T01:10:05.163Z,3.75
2022-07-31T01:10:26.968Z,2.92
2022-07-31T01:10:47.207Z,3.50
2022-07-31T01:11:05.558Z,3.60
2022-07-31T01:11:34.819Z,2.80
2022-07-31T01:11:59.754Z,3.13
2022-07-31T01:12:18.753Z,3.35
2022-07-31T01:12:38.486Z,3.28
2022-07-31T01:12:56.723Z,3.28
2022-07-31T01:13:16.586Z,3.50
2022-07-31T01:13:36.035Z,3.92
2022-07-31T01:13:54.213Z,3.97
2022-07-31T01:14:11.796Z,3.15
2022-07-31T01:14:31.244Z,3.17
2022-07-31T01:14:50.850Z,3.42
2022-07-31T01:15:08.312Z,3.15
2022-07-31T01:15:25.942Z,3.13
2022-07-31T01:15:43.689Z,3.17
2022-07-31T01:16:02.224Z,3.20
2022-07-31T01:16:19.187Z,3.08
2022-07-31T01:16:39.832Z,3.22
2022-07-31T01:16:58.749Z,2.78
2022-07-31T01:17:16.617Z,2.70
2022-07-31T01:17:34.599Z,2.85
2022-07-31T01:17:52.197Z,3.25
2022-07-31T01:18:10.907Z,3.70
2022-07-31T01:18:30.674Z,3.67
2022-07-31T01:18:48.161Z,2.65
2022-07-31T01:19:08.505Z,2.42
2022-07-31T01:19:38.071Z,2.83
2022-07-31T01:20:00.318Z,2.63
2022-07-31T01:20:17.278Z,2.95
2022-07-31T01:20:34.462Z,3.13
2022-07-31T01:20:52.953Z,3.70
2022-07-31T01:21:13.682Z,3.60
2022-07-31T01:21:35.470Z,3.30
2022-07-31T01:21:56.079Z,2.88
2022-07-31T01:22:33.124Z,3.00
2022-07-31T01:23:08.641Z,3.03
2022-07-31T01:23:38.037Z,3.65
2022-07-31T01:24:30.155Z,2.83
2022-07-31T01:25:04.285Z,2.53
2022-07-31T01:25:36.500Z,3.15
2022-07-31T01:26:19.542Z,3.25
2022-07-31T01:26:50.497Z,3.50
2022-07-31T01:27:11.331Z,3.20
2022-07-31T01:27:31.434Z,2.70
2022-07-31T01:28:14.090Z,2.83
2022-07-31T01:28:48.918Z,3.28
2022-07-31T01:29:09.976Z,3.35
2022-07-31T01:29:30.147Z,3.08
2022-07-31T01:29:49.704Z,3.00
2022-07-31T01:30:06.736Z,2.90
2022-07-31T01:30:30.320Z,2.85
2022-07-31T01:31:05.028Z,2.97
2022-07-31T01:31:31.501Z,2.97
2022-07-31T01:31:52.600Z,3.06
2022-07-31T01:32:12.313Z,3.00
2022-07-31T01:32:32.196Z,2.78
2022-07-31T01:32:52.842Z,3.17
2022-07-31T01:33:11.138Z,3.10
2022-07-31T01:33:30.396Z,3.08
2022-07-31T01:33:49.735Z,3.20
2022-07-31T01:34:08.786Z,2.97
2022-07-31T01:34:29.832Z,3.05
2022-07-31T01:34:52.199Z,3.47
2022-07-31T01:35:11.776Z,3.38
2022-07-31T01:35:32.166Z,2.88
2022-07-31T01:35:52.025Z,2.67
2022-07-31T01:36:11.574Z,2.40
2022-07-31T01:36:34.649Z,2.63
2022-07-31T01:36:57.116Z,2.60
2022-07-31T01:37:15.852Z,2.50
2022-07-31T01:37:35.506Z,2.17
2022-07-31T01:37:53.459Z,2.00
2022-07-31T01:38:11.626Z,2.08
2022-07-31T01:38:30.213Z,2.67
2022-07-31T01:38:50.087Z,3.08
2022-07-31T01:39:08.072Z,3.17
2022-07-31T01:39:25.251Z,2.70
2022-07-31T01:39:45.237Z,2.50
2022-07-31T01:40:03.774Z,2.58
2022-07-31T01:40:24.023Z,2.00
2022-07-31T01:40:43.110Z,2.25
2022-07-31T01:41:02.292Z,2.40
2022-07-31T01:41:21.836Z,2.35
2022-07-31T01:41:42.129Z,2.80
2022-07-31T01:42:01.582Z,2.20
2022-07-31T01:42:18.938Z,1.77
2022-07-31T01:42:37.613Z,1.60
2022-07-31T01:42:55.999Z,1.60
2022-07-31T01:43:14.873Z,2.25
2022-07-31T01:43:34.018Z,2.28
2022-07-31T01:43:55.228Z,2.53
2022-07-31T01:44:15.219Z,2.40
2022-07-31T01:44:35.242Z,2.13
2022-07-31T01:44:54.831Z,1.70
2022-07-31T01:45:15.480Z,1.70
2022-07-31T01:45:33.244Z,1.90
2022-07-31T01:45:52.990Z,1.75
2022-07-31T01:46:11.891Z,1.60
2022-07-31T01:46:28.964Z,2.10
2022-07-31T01:46:46.731Z,2.00
2022-07-31T01:47:07.580Z,2.10
2022-07-31T01:47:25.238Z,2.28
2022-07-31T01:47:43.164Z,2.05
2022-07-31T01:48:00.525Z,2.25
2022-07-31T01:48:23.061Z,2.10
2022-07-31T01:48:40.845Z,2.08
2022-07-31T01:48:58.729Z,1.92
2022-07-31T01:49:16.040Z,2.00
2022-07-31T01:49:33.599Z,2.25
2022-07-31T01:49:51.604Z,2.33
2022-07-31T01:50:43.002Z,2.63
2022-07-31T01:50:51.921Z,2.05
2022-07-31T01:51:09.823Z,1.90
2022-07-31T01:51:27.560Z,2.25
2022-07-31T01:51:45.122Z,2.50
2022-07-31T01:52:05.139Z,2.10
2022-07-31T01:52:23.121Z,2.25
2022-07-31T01:52:40.573Z,2.40
2022-07-31T01:52:57.680Z,2.65
2022-07-31T01:53:15.324Z,2.70
2022-07-31T01:53:34.815Z,2.55
2022-07-31T01:53:52.096Z,2.10
2022-07-31T01:54:09.968Z,2.15
2022-07-31T01:54:28.742Z,2.15
2022-07-31T01:54:46.750Z,2.05
2022-07-31T01:55:05.486Z,2.00
2022-07-31T01:55:22.544Z,2.00
2022-07-31T01:56:00.916Z,2.30
2022-07-31T01:56:18.657Z,2.65
2022-07-31T01:56:35.926Z,2.75
2022-07-31T01:56:55.071Z,2.58
2022-07-31T01:57:13.159Z,1.92
2022-07-31T01:57:37.134Z,2.05
2022-07-31T01:57:55.789Z,1.88
2022-07-31T01:58:13.118Z,1.70
2022-07-31T01:58:33.315Z,2.03
2022-07-31T01:58:55.865Z,2.00
2022-07-31T01:59:33.376Z,2.02
2022-07-31T02:00:00.988Z,2.05
2022-07-31T02:00:34.457Z,2.22
2022-07-31T02:00:52.809Z,2.58
2022-07-31T02:01:12.489Z,2.38
2022-07-31T02:01:32.402Z,2.42
2022-07-31T02:01:53.366Z,1.88
2022-07-31T02:02:10.198Z,1.75
2022-07-31T02:02:28.240Z,1.90
2022-07-31T02:02:45.743Z,1.80
2022-07-31T02:03:09.905Z,1.70
2022-07-31T02:03:43.651Z,1.55
2022-07-31T02:04:03.169Z,1.92
2022-07-31T02:04:21.690Z,2.03
2022-07-31T02:04:39.729Z,2.00
2022-07-31T02:04:58.323Z,1.98
2022-07-31T02:05:17.070Z,1.85
2022-07-31T02:05:36.038Z,1.88
2022-07-31T02:05:53.044Z,1.80
2022-07-31T02:06:10.186Z,1.85
2022-07-31T02:06:28.377Z,1.90
2022-07-31T02:06:46.735Z,1.90
2022-07-31T02:07:04.143Z,1.58
2022-07-31T02:07:21.674Z,1.67
2022-07-31T02:07:40.278Z,1.85
2022-07-31T02:07:59.103Z,1.80
2022-07-31T02:08:17.575Z,1.70
2022-07-31T02:08:36.975Z,2.00
2022-07-31T02:08:54.441Z,2.13
2022-07-31T02:09:13.443Z,1.90
2022-07-31T02:09:32.205Z,1.88
2022-07-31T02:09:52.030Z,1.98
2022-07-31T02:10:20.179Z,2.64
2022-07-31T02:10:38.448Z,2.53
2022-07-31T02:10:55.614Z,2.63
2022-07-31T02:11:14.075Z,2.30
2022-07-31T02:11:32.475Z,2.60
2022-07-31T02:11:53.465Z,2.60
2022-07-31T02:12:13.034Z,2.60
2022-07-31T02:12:32.307Z,2.60
2022-07-31T02:12:50.956Z,2.78
2022-07-31T02:13:08.833Z,3.00
2022-07-31T02:13:26.675Z,3.05
2022-07-31T02:13:43.808Z,2.83
2022-07-31T02:14:02.620Z,2.60
2022-07-31T02:14:24.103Z,2.92
2022-07-31T02:14:41.298Z,2.84
2022-07-31T02:14:58.734Z,2.95
2022-07-31T02:15:16.533Z,2.67
2022-07-31T02:15:36.358Z,2.60
2022-07-31T02:15:54.836Z,2.97
2022-07-31T02:16:13.167Z,2.80
2022-07-31T02:16:30.634Z,2.53
2022-07-31T02:17:00.183Z,2.60
2022-07-31T02:17:37.509Z,3.00
2022-07-31T02:18:12.656Z,2.97
2022-07-31T02:18:59.434Z,2.40
2022-07-31T02:19:17.006Z,2.10
2022-07-31T02:19:35.013Z,2.17
2022-07-31T02:19:59.752Z,2.28
2022-07-31T02:20:17.853Z,2.63
2022-07-31T02:20:36.113Z,3.00
2022-07-31T02:20:53.414Z,2.72
2022-07-31T02:21:10.384Z,2.25
2022-07-31T02:21:27.267Z,2.10
2022-07-31T02:21:43.948Z,2.22
2022-07-31T02:22:02.940Z,2.75
2022-07-31T02:22:21.081Z,2.33
2022-07-31T02:22:41.513Z,2.47
2022-07-31T02:22:58.455Z,2.67
2022-07-31T02:23:15.796Z,2.63
2022-07-31T02:23:33.385Z,2.80
2022-07-31T02:23:50.057Z,2.78
2022-07-31T02:24:07.158Z,2.85
2022-07-31T02:24:23.764Z,2.47
2022-07-31T02:24:40.369Z,2.38
2022-07-31T02:24:58.006Z,2.85
2022-07-31T02:25:14.787Z,2.58
2022-07-31T02:25:32.012Z,2.03
2022-07-31T02:25:51.042Z,2.42
2022-07-31T02:26:07.801Z,2.60
2022-07-31T02:26:25.810Z,2.58
2022-07-31T02:26:42.404Z,2.40
2022-07-31T02:26:59.737Z,2.83
2022-07-31T02:27:54.338Z,2.80
2022-07-31T02:27:57.651Z,2.55
2022-07-31T02:28:20.245Z,2.90
2022-07-31T02:28:38.259Z,3.00
2022-07-31T02:28:55.637Z,3.28
2022-07-31T02:29:20.357Z,3.08
2022-07-31T02:29:38.889Z,2.67
2022-07-31T02:29:57.438Z,2.95
2022-07-31T02:30:16.132Z,3.03
2022-07-31T02:30:38.354Z,3.15
2022-07-31T02:30:58.792Z,3.10
2022-07-31T02:31:16.808Z,2.75
2022-07-31T02:31:36.574Z,2.72
2022-07-31T02:32:03.183Z,3.08
2022-07-31T02:32:22.279Z,2.95
2022-07-31T02:32:40.431Z,3.08
2022-07-31T02:32:57.331Z,3.13
2022-07-31T02:33:18.781Z,2.85
2022-07-31T02:33:36.995Z,2.70
2022-07-31T02:33:54.082Z,2.67
2022-07-31T02:34:13.300Z,2.50
2022-07-31T02:34:30.743Z,2.50
2022-07-31T02:34:49.111Z,2.53
2022-07-31T02:35:07.318Z,2.33
2022-07-31T02:35:25.735Z,2.70
2022-07-31T02:35:45.409Z,2.75
2022-07-31T02:36:06.722Z,3.10
2022-07-31T02:36:24.123Z,3.05
2022-07-31T02:36:41.168Z,3.25
2022-07-31T02:36:58.119Z,3.63
2022-07-31T02:37:15.053Z,3.25
2022-07-31T02:37:34.443Z,2.92
2022-07-31T02:37:52.921Z,2.90
2022-07-31T02:38:17.168Z,3.08
2022-07-31T02:38:45.981Z,3.53
2022-07-31T02:39:31.600Z,3.40
2022-07-31T02:39:50.885Z,3.38
2022-07-31T02:40:35.577Z,3.15
2022-07-31T02:40:54.984Z,2.65
2022-07-31T02:41:12.358Z,2.90
2022-07-31T02:41:30.097Z,2.97
2022-07-31T02:41:47.406Z,3.00
2022-07-31T02:42:29.317Z,3.17
2022-07-31T02:42:46.648Z,3.42
2022-07-31T02:43:03.759Z,2.88
2022-07-31T02:43:25.600Z,2.50
2022-07-31T02:44:08.481Z,2.75
2022-07-31T02:44:27.638Z,2.63
2022-07-31T02:44:45.579Z,2.50
2022-07-31T02:45:53.845Z,2.28
2022-07-31T02:46:17.544Z,2.72
2022-07-31T02:46:37.695Z,2.50
2022-07-31T02:46:56.176Z,2.13
2022-07-31T02:48:02.689Z,2.17
2022-07-31T02:48:50.688Z,3.22
2022-07-31T02:49:59.085Z,3.17
2022-07-31T02:52:36.771Z,2.95
2022-07-31T02:52:53.484Z,3.03
2022-07-31T02:53:10.354Z,3.08
2022-07-31T02:53:30.217Z,3.50
2022-07-31T02:54:40.313Z,3.78
2022-07-31T02:55:47.926Z,2.67
2022-07-31T02:56:05.980Z,3.08
2022-07-31T02:56:25.442Z,2.90
2022-07-31T02:56:43.124Z,2.70
2022-07-31T02:56:59.985Z,2.80
2022-07-31T02:57:18.407Z,2.70
2022-07-31T02:57:35.086Z,2.22
2022-07-31T02:57:53.529Z,2.28
2022-07-31T02:58:10.298Z,2.20
2022-07-31T02:58:27.427Z,2.70
2022-07-31T02:58:44.237Z,2.58
2022-07-31T02:59:11.759Z,2.70
2022-07-31T02:59:56.061Z,2.78
2022-07-31T03:00:15.163Z,2.67
2022-07-31T03:00:31.842Z,2.58
2022-07-31T03:00:57.731Z,2.67
2022-07-31T03:01:15.711Z,2.53
2022-07-31T03:01:34.098Z,2.40
2022-07-31T03:01:50.710Z,2.53
2022-07-31T03:02:07.538Z,2.58
2022-07-31T03:02:37.044Z,2.17
2022-07-31T03:02:56.647Z,2.47
2022-07-31T03:03:14.311Z,2.58
2022-07-31T03:03:32.067Z,2.55
2022-07-31T03:03:50.145Z,2.75
2022-07-31T03:04:06.825Z,2.70
2022-07-31T03:04:24.477Z,2.60
2022-07-31T03:04:41.108Z,2.83
2022-07-31T03:04:59.112Z,2.75
2022-07-31T03:05:16.233Z,2.60
2022-07-31T03:05:32.848Z,2.35
2022-07-31T03:05:50.475Z,2.20
2022-07-31T03:06:07.106Z,2.33
2022-07-31T03:06:24.599Z,2.35
2022-07-31T03:06:41.443Z,2.30
2022-07-31T03:06:59.207Z,2.35
2022-07-31T03:07:17.595Z,2.60
2022-07-31T03:07:35.668Z,2.20
2022-07-31T03:07:52.313Z,2.45
2022-07-31T03:08:09.237Z,2.78
2022-07-31T03:08:29.424Z,2.80
2022-07-31T03:08:51.496Z,2.53
2022-07-31T03:09:11.070Z,2.67
2022-07-31T03:09:28.077Z,2.60
2022-07-31T03:10:02.505Z,2.20
2022-07-31T03:10:42.965Z,2.35
2022-07-31T03:10:59.909Z,1.92
2022-07-31T03:11:16.752Z,2.30
2022-07-31T03:11:33.433Z,3.08
2022-07-31T03:11:51.205Z,2.85
2022-07-31T03:12:08.137Z,2.60
2022-07-31T03:12:25.270Z,2.70
2022-07-31T03:12:43.387Z,2.80
2022-07-31T03:13:00.763Z,3.05
2022-07-31T03:13:18.766Z,3.13
2022-07-31T03:13:37.613Z,3.08
2022-07-31T03:13:56.509Z,2.92
2022-07-31T03:14:13.430Z,3.35
2022-07-31T03:14:32.692Z,2.85
2022-07-31T03:14:49.758Z,2.50
2022-07-31T03:15:09.826Z,2.80
2022-07-31T03:15:28.916Z,2.72
2022-07-31T03:15:50.185Z,3.17
2022-07-31T03:16:09.252Z,3.20
2022-07-31T03:16:27.680Z,2.90
2022-07-31T03:16:44.988Z,3.15
2022-07-31T03:17:01.707Z,3.38
2022-07-31T03:17:19.467Z,3.30
2022-07-31T03:17:38.404Z,3.03
2022-07-31T03:17:59.712Z,3.17
2022-07-31T03:18:26.807Z,3.55
2022-07-31T03:18:43.745Z,3.80
2022-07-31T03:19:01.158Z,3.25
2022-07-31T03:19:18.425Z,2.65
2022-07-31T03:19:35.215Z,2.22
2022-07-31T03:19:52.573Z,2.85
2022-07-31T03:20:35.583Z,3.17
2022-07-31T03:20:53.654Z,2.90
2022-07-31T03:21:11.267Z,2.53
2022-07-31T03:21:28.380Z,2.53
2022-07-31T03:21:46.209Z,2.70
2022-07-31T03:22:03.122Z,2.62
2022-07-31T03:22:20.086Z,2.45
2022-07-31T03:22:37.474Z,2.53
2022-07-31T03:22:54.244Z,2.50
2022-07-31T03:23:12.074Z,2.85
2022-07-31T03:23:39.257Z,3.00
2022-07-31T03:24:04.862Z,2.75
2022-07-31T03:24:22.452Z,3.15
2022-07-31T03:24:39.339Z,3.20
2022-07-31T03:24:57.645Z,3.08
2022-07-31T03:25:21.235Z,3.08
2022-07-31T03:25:41.063Z,2.60
2022-07-31T03:25:58.344Z,2.78
2022-07-31T03:26:15.652Z,3.55
2022-07-31T03:26:33.284Z,3.67
2022-07-31T03:26:50.503Z,3.22
2022-07-31T03:27:07.192Z,2.97
2022-07-31T03:27:24.633Z,3.25
2022-07-31T03:27:41.304Z,3.28
2022-07-31T03:28:00.109Z,2.38
2022-07-31T03:28:19.228Z,2.30
2022-07-31T03:28:37.241Z,2.67
2022-07-31T03:28:54.076Z,2.80
2022-07-31T03:29:42.306Z,3.10
2022-07-31T03:29:47.819Z,2.85
2022-07-31T03:30:05.088Z,2.80
2022-07-31T03:30:25.086Z,2.70
2022-07-31T03:30:43.839Z,2.65
2022-07-31T03:31:00.475Z,2.90
2022-07-31T03:31:21.014Z,2.42
2022-07-31T03:31:38.811Z,2.30
2022-07-31T03:31:55.693Z,2.28
2022-07-31T03:32:12.257Z,2.30
2022-07-31T03:32:29.094Z,2.53
2022-07-31T03:32:45.785Z,2.40
2022-07-31T03:33:03.663Z,2.03
2022-07-31T03:33:27.462Z,2.00
2022-07-31T03:33:44.228Z,1.80
2022-07-31T03:34:00.989Z,1.60
2022-07-31T03:34:18.743Z,1.80
2022-07-31T03:34:35.307Z,2.00
2022-07-31T03:34:51.993Z,2.05
2022-07-31T03:35:08.976Z,2.10
2022-07-31T03:35:27.059Z,2.08
2022-07-31T03:35:44.869Z,2.33
2022-07-31T03:36:02.082Z,2.70
2022-07-31T03:36:18.729Z,2.08
2022-07-31T03:36:35.302Z,2.05
2022-07-31T03:36:53.047Z,2.45
2022-07-31T03:37:10.319Z,2.22
2022-07-31T03:37:26.955Z,2.33
2022-07-31T03:37:44.224Z,3.05
2022-07-31T03:38:01.197Z,2.80
2022-07-31T03:38:43.328Z,2.60
2022-07-31T03:39:10.773Z,2.20
2022-07-31T03:39:33.789Z,2.83
2022-07-31T03:39:55.078Z,2.47
2022-07-31T03:40:13.281Z,2.25
2022-07-31T03:40:30.779Z,2.17
2022-07-31T03:40:48.101Z,2.60
2022-07-31T03:41:04.792Z,2.45
2022-07-31T03:41:22.435Z,2.10
2022-07-31T03:41:39.709Z,2.25
2022-07-31T03:41:56.738Z,2.47
2022-07-31T03:42:18.585Z,2.38
2022-07-31T03:42:36.383Z,2.20
2022-07-31T03:42:54.381Z,1.95
2022-07-31T03:43:11.446Z,2.03
2022-07-31T03:43:30.626Z,2.47
2022-07-31T03:44:03.809Z,2.80
2022-07-31T03:44:20.892Z,2.47
2022-07-31T03:44:39.123Z,2.47
2022-07-31T03:44:56.265Z,2.67
2022-07-31T03:45:13.623Z,2.60
2022-07-31T03:45:32.452Z,2.63
2022-07-31T03:45:50.517Z,2.90
2022-07-31T03:46:08.887Z,3.35
2022-07-31T03:46:25.663Z,3.13
2022-07-31T03:46:42.488Z,2.88
2022-07-31T03:46:59.543Z,3.30
2022-07-31T03:47:16.772Z,3.45
2022-07-31T03:47:34.829Z,3.20
2022-07-31T03:47:51.820Z,3.24
2022-07-31T03:48:09.032Z,3.17
2022-07-31T03:48:26.205Z,3.03
2022-07-31T03:48:46.792Z,3.10
2022-07-31T03:49:05.201Z,3.85
2022-07-31T03:49:24.010Z,3.78
2022-07-31T03:49:41.084Z,3.58
2022-07-31T03:49:58.106Z,3.58
2022-07-31T03:50:15.057Z,3.53
2022-07-31T03:50:32.989Z,3.60
2022-07-31T03:50:50.544Z,3.70
2022-07-31T03:51:07.505Z,3.58
2022-07-31T03:51:25.702Z,3.42
2022-07-31T03:51:42.348Z,3.17
2022-07-31T03:52:00.611Z,3.15
2022-07-31T03:52:17.784Z,3.35
2022-07-31T03:52:35.143Z,3.65
2022-07-31T03:52:52.106Z,3.63
2022-07-31T03:53:11.174Z,3.15
2022-07-31T03:53:32.916Z,3.30
2022-07-31T03:53:49.551Z,3.42
2022-07-31T03:54:29.455Z,3.33
2022-07-31T03:54:54.909Z,3.12
2022-07-31T03:55:12.621Z,3.13
2022-07-31T03:55:30.197Z,3.30
2022-07-31T03:55:48.916Z,3.72
2022-07-31T03:56:06.415Z,3.83
2022-07-31T03:56:24.490Z,3.85
2022-07-31T03:56:45.298Z,3.72
2022-07-31T03:57:04.576Z,3.30
2022-07-31T03:57:21.863Z,3.58
2022-07-31T03:57:43.940Z,3.10
2022-07-31T03:58:02.780Z,3.00
2022-07-31T03:58:21.068Z,3.00
2022-07-31T03:58:41.152Z,2.63
2022-07-31T03:58:57.883Z,2.88
2022-07-31T03:59:17.165Z,3.10
2022-07-31T03:59:40.509Z,2.78
2022-07-31T04:00:09.756Z,3.20
2022-07-31T04:00:35.517Z,3.35
2022-07-31T04:00:53.333Z,3.03
2022-07-31T04:01:12.331Z,3.05
2022-07-31T04:01:56.948Z,3.13
2022-07-31T04:02:13.599Z,3.88
2022-07-31T04:02:36.135Z,3.53
2022-07-31T04:03:05.729Z,3.67
2022-07-31T04:03:32.903Z,4.38
2022-07-31T04:04:13.542Z,3.47
2022-07-31T04:04:46.260Z,2.90
2022-07-31T04:05:06.874Z,3.03
2022-07-31T04:05:26.640Z,2.92
2022-07-31T04:05:43.321Z,3.15
2022-07-31T04:06:00.265Z,3.38
2022-07-31T04:06:18.867Z,3.85
2022-07-31T04:06:35.602Z,3.63
2022-07-31T04:06:52.632Z,3.38
2022-07-31T04:07:09.477Z,3.20
2022-07-31T04:07:26.296Z,3.10
2022-07-31T04:07:43.042Z,3.30
2022-07-31T04:08:01.741Z,3.42
2022-07-31T04:08:19.897Z,3.40
2022-07-31T04:08:36.561Z,3.53
2022-07-31T04:08:53.158Z,3.10
2022-07-31T04:09:18.640Z,3.08
2022-07-31T04:09:39.873Z,2.92
2022-07-31T04:09:57.556Z,3.13
2022-07-31T04:10:14.159Z,3.40
2022-07-31T04:10:30.828Z,3.60
2022-07-31T04:10:47.783Z,3.25
2022-07-31T04:11:09.063Z,3.40
2022-07-31T04:11:25.684Z,4.07
2022-07-31T04:11:42.541Z,4.00
2022-07-31T04:12:00.154Z,3.65
2022-07-31T04:12:17.065Z,3.75
2022-07-31T04:12:34.721Z,3.47
2022-07-31T04:12:51.484Z,3.42
2022-07-31T04:13:08.066Z,3.72
2022-07-31T04:13:24.772Z,3.58
2022-07-31T04:13:41.444Z,3.72
2022-07-31T04:13:58.373Z,3.83
2022-07-31T04:14:16.632Z,3.83
2022-07-31T04:14:33.242Z,3.92
2022-07-31T04:14:49.892Z,3.70
2022-07-31T04:15:07.597Z,3.97
2022-07-31T04:15:26.650Z,4.13
2022-07-31T04:15:44.748Z,3.95
2022-07-31T04:16:01.427Z,3.58
2022-07-31T04:16:18.100Z,3.92
2022-07-31T04:16:34.820Z,3.88
2022-07-31T04:16:52.413Z,3.50
2022-07-31T04:17:09.137Z,4.18
2022-07-31T04:17:25.928Z,3.63
2022-07-31T04:17:43.939Z,3.42
2022-07-31T04:18:01.723Z,3.72
2022-07-31T04:18:24.480Z,3.47
2022-07-31T04:18:41.113Z,3.60
2022-07-31T04:18:57.702Z,3.90
2022-07-31T04:19:14.482Z,3.85
2022-07-31T04:19:32.575Z,3.38
2022-07-31T04:19:49.788Z,3.45
2022-07-31T04:20:07.115Z,3.58
2022-07-31T04:20:23.810Z,3.90
2022-07-31T04:20:40.441Z,3.85
2022-07-31T04:20:58.047Z,3.74
2022-07-31T04:21:14.710Z,4.03
2022-07-31T04:21:31.688Z,4.18
2022-07-31T04:21:50.282Z,3.55
2022-07-31T04:22:07.578Z,3.20
2022-07-31T04:22:25.213Z,3.30
2022-07-31T04:22:43.029Z,4.40
2022-07-31T04:23:08.147Z,4.47
2022-07-31T04:23:49.469Z,3.55
2022-07-31T04:24:28.742Z,3.60
2022-07-31T04:24:57.147Z,3.55
2022-07-31T04:25:21.358Z,3.38
2022-07-31T04:25:57.481Z,3.55
2022-07-31T04:26:26.463Z,3.26
2022-07-31T04:26:54.758Z,3.75